createdAt,value
2022-08-05T00:00:51.070Z,999.5
2022-08-05T00:02:27.399Z,999.5
2022-08-05T00:04:03.737Z,999.5
2022-08-05T00:05:39.079Z,999.4
2022-08-05T00:07:15.384Z,999.4
2022-08-05T00:08:51.769Z,999.4
2022-08-05T00:10:28.047Z,999.3
2022-08-05T00:12:04.363Z,999.3
2022-08-05T00:13:40.724Z,999.4
2022-08-05T00:15:17.040Z,999.4
2022-08-05T00:16:53.400Z,999.4
2022-08-05T00:18:29.696Z,999.4
2022-08-05T00:20:06.058Z,999.4
2022-08-05T00:21:42.409Z,999.4
2022-08-05T00:23:18.701Z,999.4
2022-08-05T00:24:55.070Z,999.4
2022-08-05T00:26:30.397Z,999.5
2022-08-05T00:28:06.710Z,999.4
2022-08-05T00:29:43.042Z,999.4
2022-08-05T00:31:19.387Z,999.3
2022-08-05T00:32:55.689Z,999.4
2022-08-05T00:34:32.011Z,999.5
2022-08-05T00:36:08.375Z,999.4
2022-08-05T00:37:44.711Z,999.4
2022-08-05T00:39:21.051Z,999.4
2022-08-05T00:40:57.388Z,999.4
2022-08-05T00:42:33.701Z,999.3
2022-08-05T00:44:10.020Z,999.3
2022-08-05T00:45:46.331Z,999.2
2022-08-05T00:47:22.718Z,999.2
2022-08-05T00:48:58.005Z,999.2
2022-08-05T00:50:34.375Z,999.2
2022-08-05T00:52:10.687Z,999.2
2022-08-05T00:53:47.036Z,999.3
2022-08-05T00:55:23.381Z,999.3
2022-08-05T00:56:59.660Z,999.3
2022-08-05T00:58:36.032Z,999.3
2022-08-05T01:00:12.329Z,999.3
2022-08-05T01:01:48.677Z,999.3
2022-08-05T01:03:25.005Z,999.4
2022-08-05T01:05:01.310Z,999.3
2022-08-05T01:06:37.652Z,999.4
2022-08-05T01:08:13.981Z,999.3
2022-08-05T01:09:49.318Z,999.3
2022-08-05T01:11:25.687Z,999.2
2022-08-05T01:13:01.983Z,999.2
2022-08-05T01:14:38.325Z,999.2
2022-08-05T01:16:14.668Z,999.3
2022-08-05T01:17:51.004Z,999.3
2022-08-05T01:19:27.319Z,999.2
2022-08-05T01:21:03.667Z,999.3
2022-08-05T01:22:39.989Z,999.3
2022-08-05T01:24:16.306Z,999.3
2022-08-05T01:25:52.621Z,999.3
2022-08-05T01:27:28.983Z,999.3
2022-08-05T01:29:05.331Z,999.4
2022-08-05T01:30:41.648Z,999.5
2022-08-05T01:32:16.968Z,999.5
2022-08-05T01:33:53.390Z,999.5
2022-08-05T01:35:29.629Z,999.6
2022-08-05T01:37:05.958Z,999.5
2022-08-05T01:38:42.328Z,999.5
2022-08-05T01:40:18.627Z,999.5
2022-08-05T01:41:54.994Z,999.6
2022-08-05T01:43:31.319Z,999.5
2022-08-05T01:45:07.648Z,999.6
2022-08-05T01:46:43.945Z,999.7
2022-08-05T01:48:20.265Z,999.7
2022-08-05T01:49:56.624Z,999.7
2022-08-05T01:51:32.967Z,999.7
2022-08-05T01:53:08.314Z,999.6
2022-08-05T01:54:44.647Z,999.6
2022-08-05T01:56:20.943Z,999.6
2022-08-05T01:57:57.278Z,999.6
2022-08-05T01:59:33.606Z,999.6
2022-08-05T02:01:09.948Z,999.6
2022-08-05T02:02:46.264Z,999.6
2022-08-05T02:04:22.630Z,999.7
2022-08-05T02:05:58.967Z,999.7
2022-08-05T02:07:35.293Z,999.7
2022-08-05T02:09:11.601Z,999.7
2022-08-05T02:10:47.927Z,999.7
2022-08-05T02:12:24.260Z,999.7
2022-08-05T02:13:59.618Z,999.7
2022-08-05T02:15:35.934Z,999.8
2022-08-05T02:17:12.254Z,999.8
2022-08-05T02:18:48.593Z,999.9
2022-08-05T02:20:24.918Z,999.9
2022-08-05T02:22:01.257Z,1000
2022-08-05T02:23:37.594Z,1000
2022-08-05T02:25:13.910Z,1000.2
2022-08-05T02:26:50.263Z,1000.3
2022-08-05T02:28:26.575Z,1000.3
2022-08-05T02:30:02.918Z,1000.3
2022-08-05T02:31:39.256Z,1000.3
2022-08-05T02:33:15.604Z,1000.4
2022-08-05T02:34:50.910Z,1000.4
2022-08-05T02:36:27.248Z,1000.5
2022-08-05T02:38:03.577Z,1000.4
2022-08-05T02:39:39.923Z,1000.4
2022-08-05T02:41:16.248Z,1000.4
2022-08-05T02:42:52.558Z,1000.4
2022-08-05T02:44:28.931Z,1000.4
2022-08-05T02:46:05.248Z,1000.4
2022-08-05T02:47:41.582Z,1000.4
2022-08-05T02:49:17.882Z,1000.3
2022-08-05T02:50:54.254Z,1000.3
2022-08-05T02:52:30.585Z,1000.4
2022-08-05T02:54:06.910Z,1000.3
2022-08-05T02:55:43.211Z,1000.3
2022-08-05T02:57:18.551Z,1000.2
2022-08-05T02:58:54.888Z,1000.3
2022-08-05T03:00:31.233Z,1000.4
2022-08-05T03:02:07.578Z,1000.5
2022-08-05T03:03:43.892Z,1000.4
2022-08-05T03:05:20.221Z,1000.5
2022-08-05T03:06:56.589Z,1000.5
2022-08-05T03:08:32.869Z,1000.5
2022-08-05T03:10:09.245Z,1000.6
2022-08-05T03:11:45.541Z,1000.6
2022-08-05T03:13:21.853Z,1000.6
2022-08-05T03:14:58.206Z,1000.6
2022-08-05T03:16:34.528Z,1000.6
2022-08-05T03:18:09.890Z,1000.5
2022-08-05T03:19:46.214Z,1000.5
2022-08-05T03:21:22.536Z,1000.4
2022-08-05T03:22:58.907Z,1000.5
2022-08-05T03:24:35.244Z,1000.7
2022-08-05T03:26:11.526Z,1000.8
2022-08-05T03:27:47.861Z,1000.7
2022-08-05T03:29:23.214Z,1000.6
2022-08-05T03:30:59.566Z,1000.6
2022-08-05T03:32:35.902Z,1000.5
2022-08-05T03:34:12.198Z,1000.4
2022-08-05T03:35:48.536Z,1000.2
2022-08-05T03:37:24.873Z,1000
2022-08-05T03:39:01.194Z,999.7
2022-08-05T03:40:37.536Z,999.5
2022-08-05T03:42:13.879Z,999.4
2022-08-05T03:43:50.186Z,999.5
2022-08-05T03:45:26.526Z,999.6
2022-08-05T03:47:02.848Z,999.5
2022-08-05T03:48:39.216Z,999.4
2022-08-05T03:50:14.539Z,999.2
2022-08-05T03:51:50.899Z,999.1
2022-08-05T03:53:27.200Z,999.1
2022-08-05T03:55:03.527Z,999
2022-08-05T03:56:39.866Z,999.2
2022-08-05T03:58:16.217Z,999.2
2022-08-05T04:01:28.854Z,999.3
2022-08-05T04:03:05.198Z,999.4
2022-08-05T04:04:41.508Z,999.5
2022-08-05T04:06:17.865Z,999.5
2022-08-05T04:07:54.164Z,999.6
2022-08-05T04:09:30.500Z,999.6
2022-08-05T04:11:06.829Z,999.7
2022-08-05T04:14:18.511Z,999.9
2022-08-05T04:15:54.829Z,1000
2022-08-05T04:17:31.171Z,999.9
2022-08-05T04:19:07.509Z,1000
2022-08-05T04:20:43.828Z,1000
2022-08-05T04:22:20.159Z,1000
2022-08-05T04:23:56.491Z,1000
2022-08-05T04:25:32.817Z,1000
2022-08-05T04:27:09.193Z,1000.1
2022-08-05T04:28:45.486Z,1000.1
2022-08-05T04:30:21.806Z,1000.1
2022-08-05T04:31:58.144Z,1000.2
2022-08-05T04:33:34.483Z,1000.2
2022-08-05T04:35:09.816Z,1000.2
2022-08-05T04:36:46.144Z,1000.1
2022-08-05T04:38:22.490Z,1000.1
2022-08-05T04:39:58.813Z,1000.1
2022-08-05T04:41:35.140Z,1000.1
2022-08-05T04:43:11.476Z,1000.2
2022-08-05T04:44:47.807Z,1000.1
2022-08-05T04:46:24.138Z,1000.2
2022-08-05T04:48:00.463Z,1000.1
2022-08-05T04:49:36.795Z,1000
2022-08-05T04:51:13.134Z,1000.1
2022-08-05T04:52:49.458Z,1000.1
2022-08-05T04:54:25.777Z,1000.1
2022-08-05T04:56:02.113Z,1000.1
2022-08-05T04:57:37.471Z,1000.1
2022-08-05T04:59:13.800Z,1000.1
2022-08-05T05:00:50.128Z,1000.2
2022-08-05T05:02:26.459Z,1000.3
2022-08-05T05:04:02.785Z,1000.3
2022-08-05T05:05:39.116Z,1000.2
2022-08-05T05:07:15.473Z,1000.1
2022-08-05T05:08:51.773Z,1000
2022-08-05T05:10:28.114Z,999.9
2022-08-05T05:12:04.445Z,999.9
2022-08-05T05:13:40.768Z,1000
2022-08-05T05:15:17.125Z,1000.2
2022-08-05T05:18:29.769Z,1000.2
2022-08-05T05:20:05.115Z,1000.1
2022-08-05T05:21:41.454Z,1000.2
2022-08-05T05:23:17.781Z,1000.2
2022-08-05T05:24:54.102Z,1000.1
2022-08-05T05:26:30.431Z,1000
2022-08-05T05:28:06.779Z,1000
2022-08-05T05:29:43.100Z,1000.1
2022-08-05T05:31:19.443Z,1000.2
2022-08-05T05:32:55.756Z,1000.2
2022-08-05T05:34:32.088Z,1000.3
2022-08-05T05:36:08.434Z,1000.3
2022-08-05T05:37:44.754Z,1000.2
2022-08-05T05:39:21.084Z,1000.3
2022-08-05T05:40:57.403Z,1000.2
2022-08-05T05:42:33.747Z,1000.1
2022-08-05T05:44:10.087Z,1000.2
2022-08-05T05:45:45.417Z,1000.2
2022-08-05T05:47:21.836Z,1000.2
2022-08-05T05:48:58.087Z,1000.3
2022-08-05T05:50:34.407Z,1000.3
2022-08-05T05:52:10.741Z,1000.3
2022-08-05T05:53:47.076Z,1000.2
2022-08-05T05:56:59.735Z,1000.2
2022-08-05T05:58:36.069Z,1000.2
2022-08-05T06:00:12.411Z,1000.2
2022-08-05T06:01:48.725Z,1000.2
2022-08-05T06:03:25.076Z,1000.3
2022-08-05T06:05:01.403Z,1000.3
2022-08-05T06:06:37.726Z,1000.4
2022-08-05T06:08:14.061Z,1000.4
2022-08-05T06:09:50.390Z,1000.5
2022-08-05T06:11:25.740Z,1000.5
2022-08-05T06:13:02.085Z,1000.4
2022-08-05T06:14:38.393Z,1000.3
2022-08-05T06:16:14.723Z,1000.4
2022-08-05T06:17:51.067Z,1000.4
2022-08-05T06:19:27.415Z,1000.4
2022-08-05T06:21:03.709Z,1000.4
2022-08-05T06:22:40.044Z,1000.4
2022-08-05T06:24:16.381Z,1000.3
2022-08-05T06:25:52.706Z,1000.4
2022-08-05T06:27:29.042Z,1000.4
2022-08-05T06:29:05.364Z,1000.4
2022-08-05T06:30:41.695Z,1000.6
2022-08-05T06:32:17.040Z,1000.7
2022-08-05T06:33:53.371Z,1000.7
2022-08-05T06:35:29.707Z,1000.6
2022-08-05T06:37:06.063Z,1000.5
2022-08-05T06:38:42.374Z,1000.5
2022-08-05T06:40:18.699Z,1000.5
2022-08-05T06:41:55.043Z,1000.5
2022-08-05T06:43:31.358Z,1000.5
2022-08-05T06:45:07.685Z,1000.5
2022-08-05T06:46:44.018Z,1000.5
2022-08-05T06:48:20.355Z,1000.6
2022-08-05T06:49:56.686Z,1000.6
2022-08-05T06:51:33.019Z,1000.8
2022-08-05T06:53:08.362Z,1000.9
2022-08-05T06:54:44.709Z,1001
2022-08-05T06:56:21.020Z,1001
2022-08-05T06:57:57.351Z,1001
2022-08-05T06:59:33.688Z,1001
2022-08-05T07:01:10.019Z,1001.1
2022-08-05T07:02:46.369Z,1001
2022-08-05T07:04:22.678Z,1001
2022-08-05T07:05:59.012Z,1001
2022-08-05T07:07:35.331Z,1001
2022-08-05T07:09:11.675Z,1001
2022-08-05T07:10:48.009Z,1001
2022-08-05T07:12:24.340Z,1001
2022-08-05T07:13:59.692Z,1001
2022-08-05T07:15:36.004Z,1001
2022-08-05T07:17:12.348Z,1001
2022-08-05T07:18:48.664Z,1001
2022-08-05T07:20:24.998Z,1001
2022-08-05T07:22:01.350Z,1001.1
2022-08-05T07:23:37.661Z,1001.1
2022-08-05T07:25:13.985Z,1001.1
2022-08-05T07:26:50.322Z,1001.1
2022-08-05T07:28:26.642Z,1001.2
2022-08-05T07:30:02.983Z,1001.3
2022-08-05T07:31:39.320Z,1001.3
2022-08-05T07:33:15.639Z,1001.3
2022-08-05T07:34:51.972Z,1001.3
2022-08-05T07:36:28.315Z,1001.4
2022-08-05T07:38:03.651Z,1001.4
2022-08-05T07:39:39.985Z,1001.4
2022-08-05T07:41:16.312Z,1001.4
2022-08-05T07:42:52.645Z,1001.4
2022-08-05T07:44:28.971Z,1001.4
2022-08-05T07:46:05.304Z,1001.4
2022-08-05T07:47:41.643Z,1001.4
2022-08-05T07:49:17.970Z,1001.4
2022-08-05T07:50:54.303Z,1001.4
2022-08-05T07:52:30.635Z,1001.4
2022-08-05T07:54:06.958Z,1001.4
2022-08-05T07:55:43.299Z,1001.4
2022-08-05T07:57:19.629Z,1001.5
2022-08-05T07:58:55.958Z,1001.4
2022-08-05T08:00:31.301Z,1001.5
2022-08-05T08:02:07.634Z,1001.5
2022-08-05T08:03:43.968Z,1001.6
2022-08-05T08:05:20.281Z,1001.6
2022-08-05T08:06:56.617Z,1001.6
2022-08-05T08:08:32.977Z,1001.7
2022-08-05T08:10:09.289Z,1001.7
2022-08-05T08:11:45.616Z,1001.8
2022-08-05T08:13:21.941Z,1001.9
2022-08-05T08:14:58.297Z,1002
2022-08-05T08:16:34.613Z,1002.1
2022-08-05T08:18:10.934Z,1002.1
2022-08-05T08:19:47.267Z,1002
2022-08-05T08:21:23.596Z,1002
2022-08-05T08:22:58.943Z,1002
2022-08-05T08:24:35.280Z,1002
2022-08-05T08:26:11.613Z,1002
2022-08-05T08:27:47.973Z,1002
2022-08-05T08:29:24.283Z,1002
2022-08-05T08:31:00.625Z,1002
2022-08-05T08:32:36.927Z,1002.1
2022-08-05T08:35:49.588Z,1002.2
2022-08-05T08:37:25.931Z,1002.3
2022-08-05T08:39:02.267Z,1002.3
2022-08-05T08:42:14.917Z,1002.4
2022-08-05T08:43:51.267Z,1002.4
2022-08-05T08:45:26.589Z,1002.5
2022-08-05T08:47:02.930Z,1002.5
2022-08-05T08:48:39.258Z,1002.6
2022-08-05T08:50:15.588Z,1002.6
2022-08-05T08:51:50.940Z,1002.6
2022-08-05T08:53:27.265Z,1002.5
2022-08-05T08:55:03.615Z,1002.5
2022-08-05T08:56:39.940Z,1002.5
2022-08-05T08:58:16.276Z,1002.6
2022-08-05T08:59:52.602Z,1002.6
2022-08-05T09:01:28.922Z,1002.6
2022-08-05T09:03:05.263Z,1002.5
2022-08-05T09:04:41.594Z,1002.6
2022-08-05T09:06:17.928Z,1002.6
2022-08-05T09:07:54.249Z,1002.6
2022-08-05T09:09:30.580Z,1002.6
2022-08-05T09:11:06.927Z,1002.7
2022-08-05T09:12:42.273Z,1002.7
2022-08-05T09:14:18.592Z,1002.7
2022-08-05T09:15:54.954Z,1002.8
2022-08-05T09:17:31.256Z,1002.8
2022-08-05T09:19:07.602Z,1002.8
2022-08-05T09:20:43.907Z,1002.8
2022-08-05T09:22:20.249Z,1002.9
2022-08-05T09:23:56.568Z,1002.9
2022-08-05T09:25:32.901Z,1002.9
2022-08-05T09:27:09.240Z,1002.9
2022-08-05T09:28:45.599Z,1002.9
2022-08-05T09:30:21.893Z,1002.9
2022-08-05T09:31:58.224Z,1002.9
2022-08-05T09:33:34.556Z,1003
2022-08-05T09:36:46.240Z,1003.1
2022-08-05T09:38:22.560Z,1003
2022-08-05T09:39:58.893Z,1003
2022-08-05T09:41:35.228Z,1003
2022-08-05T09:43:11.550Z,1003
2022-08-05T09:44:47.896Z,1003.1
2022-08-05T09:46:24.217Z,1003
2022-08-05T09:48:00.551Z,1003.1
2022-08-05T09:49:36.875Z,1003.1
2022-08-05T09:52:49.539Z,1003.1
2022-08-05T09:54:25.878Z,1003.1
2022-08-05T09:56:02.210Z,1003.2
2022-08-05T09:57:37.550Z,1003.2
2022-08-05T09:59:13.888Z,1003.2
2022-08-05T10:00:50.213Z,1003.2
2022-08-05T10:02:26.540Z,1003.3
2022-08-05T10:04:02.877Z,1003.3
2022-08-05T10:05:39.205Z,1003.3
2022-08-05T10:07:15.546Z,1003.3
2022-08-05T10:08:51.863Z,1003.4
2022-08-05T10:10:28.194Z,1003.4
2022-08-05T10:12:04.526Z,1003.4
2022-08-05T10:13:40.853Z,1003.4
2022-08-05T10:15:17.187Z,1003.4
2022-08-05T10:16:53.538Z,1003.4
2022-08-05T10:18:29.870Z,1003.5
2022-08-05T10:20:06.179Z,1003.5
2022-08-05T10:21:41.522Z,1003.5
2022-08-05T10:23:17.857Z,1003.5
2022-08-05T10:24:54.190Z,1003.6
2022-08-05T10:26:30.535Z,1003.6
2022-08-05T10:28:06.854Z,1003.7
2022-08-05T10:29:43.174Z,1003.7
2022-08-05T10:31:19.509Z,1003.7
2022-08-05T10:32:55.875Z,1003.7
2022-08-05T10:34:32.198Z,1003.8
2022-08-05T10:36:08.514Z,1003.7
2022-08-05T10:37:44.835Z,1003.8
2022-08-05T10:39:21.169Z,1003.8
2022-08-05T10:40:57.493Z,1003.8
2022-08-05T10:42:32.845Z,1003.8
2022-08-05T10:44:09.173Z,1003.8
2022-08-05T10:45:45.507Z,1003.8
2022-08-05T10:47:21.831Z,1003.9
2022-08-05T10:48:58.169Z,1003.9
2022-08-05T10:50:34.493Z,1003.9
2022-08-05T10:52:10.823Z,1004
2022-08-05T10:53:47.153Z,1003.9
2022-08-05T10:55:23.498Z,1004
2022-08-05T10:56:59.823Z,1004
2022-08-05T10:58:36.146Z,1004
2022-08-05T11:00:12.483Z,1004.1
2022-08-05T11:01:48.806Z,1004.1
2022-08-05T11:03:24.163Z,1004.1
2022-08-05T11:05:00.499Z,1004.1
2022-08-05T11:06:36.819Z,1004.1
2022-08-05T11:08:13.153Z,1004.2
2022-08-05T11:09:49.486Z,1004.2
2022-08-05T11:11:25.821Z,1004.2
2022-08-05T11:13:02.149Z,1004.2
2022-08-05T11:14:38.469Z,1004.2
2022-08-05T11:16:14.812Z,1004.2
2022-08-05T11:17:51.142Z,1004.2
2022-08-05T11:19:27.464Z,1004.3
2022-08-05T11:21:03.813Z,1004.3
2022-08-05T11:22:40.127Z,1004.3
2022-08-05T11:24:15.487Z,1004.3
2022-08-05T11:25:51.808Z,1004.3
2022-08-05T11:27:28.143Z,1004.3
2022-08-05T11:29:04.467Z,1004.3
2022-08-05T11:30:40.800Z,1004.3
2022-08-05T11:32:17.132Z,1004.3
2022-08-05T11:33:53.450Z,1004.3
2022-08-05T11:35:29.794Z,1004.3
2022-08-05T11:37:06.151Z,1004.3
2022-08-05T11:38:42.450Z,1004.3
2022-08-05T11:40:18.807Z,1004.3
2022-08-05T11:41:55.110Z,1004.3
2022-08-05T11:43:31.434Z,1004.3
2022-08-05T11:45:07.768Z,1004.3
2022-08-05T11:46:43.128Z,1004.3
2022-08-05T11:48:19.451Z,1004.4
2022-08-05T11:49:55.781Z,1004.3
2022-08-05T11:51:32.117Z,1004.3
2022-08-05T11:53:08.439Z,1004.3
2022-08-05T11:54:44.774Z,1004.3
2022-08-05T11:56:21.155Z,1004.3
2022-08-05T11:57:57.437Z,1004.3
2022-08-05T11:59:33.766Z,1004.3
2022-08-05T12:01:10.103Z,1004.3
2022-08-05T12:02:46.426Z,1004.3
2022-08-05T12:04:22.767Z,1004.4
2022-08-05T12:05:59.082Z,1004.3
2022-08-05T12:07:34.433Z,1004.4
2022-08-05T12:09:10.767Z,1004.3
2022-08-05T12:10:47.091Z,1004.3
2022-08-05T12:12:23.428Z,1004.3
2022-08-05T12:13:59.758Z,1004.4
2022-08-05T12:15:36.097Z,1004.4
2022-08-05T12:17:12.417Z,1004.4
2022-08-05T12:18:48.782Z,1004.4
2022-08-05T12:20:25.080Z,1004.3
2022-08-05T12:22:01.421Z,1004.4
2022-08-05T12:23:37.741Z,1004.4
2022-08-05T12:25:14.068Z,1004.4
2022-08-05T12:26:50.409Z,1004.4
2022-08-05T12:28:25.747Z,1004.4
2022-08-05T12:30:02.089Z,1004.4
2022-08-05T12:31:38.417Z,1004.5
2022-08-05T12:33:14.747Z,1004.5
2022-08-05T12:34:51.084Z,1004.5
2022-08-05T12:36:27.404Z,1004.5
2022-08-05T12:38:03.731Z,1004.5
2022-08-05T12:39:40.075Z,1004.5
2022-08-05T12:41:16.398Z,1004.5
2022-08-05T12:42:52.721Z,1004.5
2022-08-05T12:44:29.056Z,1004.5
2022-08-05T12:46:05.392Z,1004.5
2022-08-05T12:47:41.722Z,1004.6
2022-08-05T12:49:18.056Z,1004.6
2022-08-05T12:50:54.391Z,1004.6
2022-08-05T12:52:29.738Z,1004.6
2022-08-05T12:54:06.063Z,1004.6
2022-08-05T12:55:42.390Z,1004.7
2022-08-05T12:57:18.729Z,1004.7
2022-08-05T12:58:55.065Z,1004.8
2022-08-05T13:00:31.382Z,1004.7
2022-08-05T13:02:07.713Z,1004.7
2022-08-05T13:03:44.077Z,1004.8
2022-08-05T13:05:20.383Z,1004.7
2022-08-05T13:06:56.702Z,1004.7
2022-08-05T13:08:33.034Z,1004.8
2022-08-05T13:10:09.365Z,1004.8
2022-08-05T13:11:45.699Z,1004.8
2022-08-05T13:13:21.056Z,1004.9
2022-08-05T13:14:57.383Z,1004.9
2022-08-05T13:16:33.715Z,1004.9
2022-08-05T13:18:10.045Z,1004.9
2022-08-05T13:19:46.378Z,1004.9
2022-08-05T13:21:22.705Z,1004.9
2022-08-05T13:22:59.054Z,1005
2022-08-05T13:24:35.359Z,1005
2022-08-05T13:26:11.692Z,1005
2022-08-05T13:27:48.027Z,1005.1
2022-08-05T13:29:24.374Z,1005.1
2022-08-05T13:31:00.686Z,1005.1
2022-08-05T13:32:37.020Z,1005.1
2022-08-05T13:34:12.375Z,1005.1
2022-08-05T13:35:48.701Z,1005.1
2022-08-05T13:37:25.027Z,1005.1
2022-08-05T13:39:01.362Z,1005.1
2022-08-05T13:40:37.687Z,1005
2022-08-05T13:42:14.022Z,1005
2022-08-05T13:43:50.351Z,1005.1
2022-08-05T13:45:26.679Z,1005.1
2022-08-05T13:47:03.027Z,1005.1
2022-08-05T13:48:39.345Z,1005.1
2022-08-05T13:50:15.670Z,1005.2
2022-08-05T13:51:52.009Z,1005.2
2022-08-05T13:53:28.336Z,1005.2
2022-08-05T13:55:03.678Z,1005.2
2022-08-05T13:56:40.007Z,1005.2
2022-08-05T13:58:16.347Z,1005.3
2022-08-05T13:59:52.695Z,1005.3
2022-08-05T14:01:29.008Z,1005.3
2022-08-05T14:03:05.342Z,1005.3
2022-08-05T14:04:41.676Z,1005.3
2022-08-05T14:06:18.006Z,1005.3
2022-08-05T14:07:54.347Z,1005.3
2022-08-05T14:09:30.656Z,1005.4
2022-08-05T14:11:06.997Z,1005.5
2022-08-05T14:12:43.336Z,1005.4
2022-08-05T14:14:18.676Z,1005.5
2022-08-05T14:15:55.011Z,1005.4
2022-08-05T14:17:31.541Z,1005.4
2022-08-05T14:19:07.661Z,1005.5
2022-08-05T14:20:44.016Z,1005.5
2022-08-05T14:22:20.348Z,1005.5
2022-08-05T14:23:56.705Z,1005.5
2022-08-05T14:25:33.002Z,1005.5
2022-08-05T14:27:09.332Z,1005.5
2022-08-05T14:28:45.654Z,1005.5
2022-08-05T14:30:21.990Z,1005.6
2022-08-05T14:31:58.319Z,1005.6
2022-08-05T14:33:34.652Z,1005.6
2022-08-05T14:35:09.994Z,1005.6
2022-08-05T14:36:46.325Z,1005.6
2022-08-05T14:38:22.648Z,1005.6
2022-08-05T14:39:59.008Z,1005.5
2022-08-05T14:41:35.319Z,1005.5
2022-08-05T14:43:11.665Z,1005.6
2022-08-05T14:44:47.976Z,1005.6
2022-08-05T14:46:24.303Z,1005.5
2022-08-05T14:48:00.649Z,1005.5
2022-08-05T14:49:36.977Z,1005.5
2022-08-05T14:51:13.299Z,1005.6
2022-08-05T14:52:49.631Z,1005.5
2022-08-05T14:54:25.976Z,1005.5
2022-08-05T14:56:01.326Z,1005.5
2022-08-05T14:57:37.640Z,1005.6
2022-08-05T14:59:13.973Z,1005.6
2022-08-05T15:00:50.293Z,1005.6
2022-08-05T15:02:26.628Z,1005.6
2022-08-05T15:04:01.993Z,1005.6
2022-08-05T15:05:38.329Z,1005.7
2022-08-05T15:07:14.655Z,1005.6
2022-08-05T15:08:50.007Z,1005.7
2022-08-05T15:10:26.330Z,1005.6
2022-08-05T15:12:02.711Z,1005.6
2022-08-05T15:13:38.993Z,1005.6
2022-08-05T15:15:15.336Z,1005.6
2022-08-05T15:16:51.654Z,1005.6
2022-08-05T15:18:28.000Z,1005.7
2022-08-05T15:20:04.331Z,1005.7
2022-08-05T15:21:40.646Z,1005.6
2022-08-05T15:23:16.980Z,1005.6
2022-08-05T15:24:53.312Z,1005.6
2022-08-05T15:26:29.646Z,1005.6
2022-08-05T15:28:06.031Z,1005.6
2022-08-05T15:29:41.315Z,1005.6
2022-08-05T15:31:17.646Z,1005.6
2022-08-05T15:32:53.003Z,1005.6
2022-08-05T15:34:28.356Z,1005.6
2022-08-05T15:36:04.717Z,1005.5
2022-08-05T15:37:41.030Z,1005.5
2022-08-05T15:39:17.343Z,1005.6
2022-08-05T15:40:53.670Z,1005.5
2022-08-05T15:42:30.003Z,1005.5
2022-08-05T15:44:06.372Z,1005.5
2022-08-05T15:45:42.689Z,1005.5
2022-08-05T15:47:18.998Z,1005.5
2022-08-05T15:48:55.337Z,1005.5
2022-08-05T15:50:31.651Z,1005.6
2022-08-05T15:52:07.984Z,1005.6
2022-08-05T15:53:44.338Z,1005.6
2022-08-05T15:55:19.671Z,1005.6
2022-08-05T15:56:55.999Z,1005.6
2022-08-05T15:58:32.325Z,1005.6
2022-08-05T16:00:08.670Z,1005.7
2022-08-05T16:01:45.004Z,1005.6
2022-08-05T16:03:21.323Z,1005.6
2022-08-05T16:04:57.659Z,1005.6
2022-08-05T16:06:33.996Z,1005.6
2022-08-05T16:08:10.314Z,1005.6
2022-08-05T16:09:46.689Z,1005.7
2022-08-05T16:11:22.979Z,1005.7
2022-08-05T16:12:59.327Z,1005.7
2022-08-05T16:14:35.639Z,1005.7
2022-08-05T16:16:10.981Z,1005.8
2022-08-05T16:17:47.322Z,1005.8
2022-08-05T16:19:23.665Z,1005.8
2022-08-05T16:20:59.980Z,1005.8
2022-08-05T16:22:36.307Z,1005.7
2022-08-05T16:24:12.649Z,1005.8
2022-08-05T16:25:48.961Z,1005.8
2022-08-05T16:27:25.315Z,1005.8
2022-08-05T16:29:01.632Z,1005.9
2022-08-05T16:30:37.983Z,1005.9
2022-08-05T16:32:14.310Z,1005.9
2022-08-05T16:33:50.619Z,1005.8
2022-08-05T16:35:26.948Z,1006
2022-08-05T16:37:02.334Z,1006
2022-08-05T16:38:38.622Z,1006.1
2022-08-05T16:40:14.949Z,1006.1
2022-08-05T16:41:51.297Z,1006
2022-08-05T16:43:27.622Z,1006.1
2022-08-05T16:45:03.953Z,1006.1
2022-08-05T16:46:40.305Z,1006.1
2022-08-05T16:48:16.615Z,1006.1
2022-08-05T16:49:52.948Z,1006.2
2022-08-05T16:51:29.268Z,1006.2
2022-08-05T16:53:05.604Z,1006.2
2022-08-05T16:54:41.963Z,1006.3
2022-08-05T16:56:18.284Z,1006.2
2022-08-05T16:57:53.622Z,1006.2
2022-08-05T16:59:29.974Z,1006.2
2022-08-05T17:01:06.275Z,1006.2
2022-08-05T17:02:42.621Z,1006.2
2022-08-05T17:04:18.970Z,1006.3
2022-08-05T17:05:55.281Z,1006.3
2022-08-05T17:07:31.620Z,1006.3
2022-08-05T17:09:07.959Z,1006.3
2022-08-05T17:10:44.320Z,1006.3
2022-08-05T17:12:20.614Z,1006.3
2022-08-05T17:13:56.931Z,1006.4
2022-08-05T17:15:33.252Z,1006.5
2022-08-05T17:17:09.664Z,1006.4
2022-08-05T17:18:44.941Z,1006.4
2022-08-05T17:20:21.265Z,1006.5
2022-08-05T17:21:57.604Z,1006.4
2022-08-05T17:23:33.925Z,1006.5
2022-08-05T17:25:10.267Z,1006.5
2022-08-05T17:26:46.575Z,1006.5
2022-08-05T17:28:22.915Z,1006.6
2022-08-05T17:29:59.251Z,1006.5
2022-08-05T17:31:35.590Z,1006.5
2022-08-05T17:33:11.911Z,1006.6
2022-08-05T17:34:48.258Z,1006.6
2022-08-05T17:36:24.567Z,1006.6
2022-08-05T17:38:00.912Z,1006.6
2022-08-05T17:39:36.275Z,1006.6
2022-08-05T17:41:12.569Z,1006.6
2022-08-05T17:42:48.914Z,1006.6
2022-08-05T17:44:25.236Z,1006.7
2022-08-05T17:46:01.575Z,1006.7
2022-08-05T17:47:37.931Z,1006.7
2022-08-05T17:49:14.255Z,1006.8
2022-08-05T17:50:50.560Z,1006.7
2022-08-05T17:52:26.893Z,1006.8
2022-08-05T17:54:03.221Z,1006.8
2022-08-05T17:55:39.588Z,1006.8
2022-08-05T17:57:15.909Z,1006.9
2022-08-05T17:58:52.231Z,1006.8
2022-08-05T18:00:27.587Z,1006.9
2022-08-05T18:02:03.898Z,1006.9
2022-08-05T18:03:40.217Z,1006.9
2022-08-05T18:05:16.561Z,1007
2022-08-05T18:06:52.911Z,1007
2022-08-05T18:08:29.256Z,1007
2022-08-05T18:10:05.545Z,1007.1
2022-08-05T18:11:41.875Z,1007
2022-08-05T18:13:18.225Z,1007.1
2022-08-05T18:14:54.556Z,1007.1
2022-08-05T18:16:30.891Z,1007.2
2022-08-05T18:18:07.210Z,1007.2
2022-08-05T18:19:43.576Z,1007.2
2022-08-05T18:21:19.866Z,1007.2
2022-08-05T18:22:55.219Z,1007.3
2022-08-05T18:24:31.549Z,1007.3
2022-08-05T18:26:07.863Z,1007.4
2022-08-05T18:27:44.209Z,1007.4
2022-08-05T18:29:20.541Z,1007.4
2022-08-05T18:30:56.873Z,1007.4
2022-08-05T18:32:32.245Z,1007.4
2022-08-05T18:34:07.597Z,1007.4
2022-08-05T18:35:42.924Z,1007.5
2022-08-05T18:37:19.261Z,1007.5
2022-08-05T18:38:54.617Z,1007.5
2022-08-05T18:40:30.971Z,1007.5
2022-08-05T18:42:07.262Z,1007.6
2022-08-05T18:43:43.594Z,1007.5
2022-08-05T18:45:19.929Z,1007.6
2022-08-05T18:46:56.251Z,1007.6
2022-08-05T18:48:32.587Z,1007.6
2022-08-05T18:50:08.925Z,1007.6
2022-08-05T18:51:45.242Z,1007.6
2022-08-05T18:53:21.582Z,1007.7
2022-08-05T18:54:57.953Z,1007.7
2022-08-05T18:56:34.269Z,1007.7
2022-08-05T18:58:10.574Z,1007.7
2022-08-05T18:59:46.904Z,1007.7
2022-08-05T19:01:22.245Z,1007.6
2022-08-05T19:02:58.604Z,1007.7
2022-08-05T19:04:34.941Z,1007.7
2022-08-05T19:06:11.263Z,1007.7
2022-08-05T19:07:47.610Z,1007.7
2022-08-05T19:09:23.903Z,1007.8
2022-08-05T19:11:00.234Z,1007.8
2022-08-05T19:12:36.577Z,1007.9
2022-08-05T19:14:12.899Z,1007.8
2022-08-05T19:15:49.223Z,1007.9
2022-08-05T19:17:25.552Z,1007.9
2022-08-05T19:19:01.892Z,1007.9
2022-08-05T19:20:38.213Z,1007.9
2022-08-05T19:22:14.556Z,1007.9
2022-08-05T19:23:49.895Z,1008
2022-08-05T19:25:26.224Z,1008
2022-08-05T19:27:02.557Z,1008
2022-08-05T19:28:38.893Z,1008
2022-08-05T19:30:15.225Z,1008.1
2022-08-05T19:31:51.544Z,1008.1
2022-08-05T19:33:27.873Z,1008.1
2022-08-05T19:35:04.223Z,1008.1
2022-08-05T19:36:39.564Z,1008.1
2022-08-05T19:38:15.917Z,1008.2
2022-08-05T19:39:52.227Z,1008.2
2022-08-05T19:41:28.561Z,1008.2
2022-08-05T19:43:04.881Z,1008.3
2022-08-05T19:44:41.218Z,1008.3
2022-08-05T19:46:17.546Z,1008.3
2022-08-05T19:47:53.876Z,1008.4
2022-08-05T19:49:30.208Z,1008.4
2022-08-05T19:51:06.540Z,1008.4
2022-08-05T19:52:42.869Z,1008.4
2022-08-05T19:54:19.206Z,1008.5
2022-08-05T19:55:55.539Z,1008.5
2022-08-05T19:57:30.875Z,1008.6
2022-08-05T19:59:07.209Z,1008.6
2022-08-05T20:00:43.540Z,1008.6
2022-08-05T20:02:19.869Z,1008.7
2022-08-05T20:03:56.201Z,1008.7
2022-08-05T20:05:32.527Z,1008.7
2022-08-05T20:07:08.868Z,1008.7
2022-08-05T20:08:45.228Z,1008.7
2022-08-05T20:10:21.548Z,1008.8
2022-08-05T20:11:57.851Z,1008.8
2022-08-05T20:13:34.202Z,1008.9
2022-08-05T20:15:10.521Z,1008.9
2022-08-05T20:16:46.851Z,1009
2022-08-05T20:18:22.185Z,1009
2022-08-05T20:19:58.526Z,1009
2022-08-05T20:21:34.857Z,1009
2022-08-05T20:23:11.185Z,1009.1
2022-08-05T20:24:47.517Z,1009.1
2022-08-05T20:26:23.843Z,1009.1